アルジェ の空港の天気 - METARとTAF

ウアリ・ブーメディアン空港 ( DAAG / ALG ) - アルジェリア アルジェ
飛行場実況気象(Metar)
観測時間07/16 07:30 CET (07/16 06:30 UTC)
風向・風速西南西 2m/s
視程10km以上
天気現象
少しの雲 雲底高度 700m
少しの雲 雲底高度 790m
全天の8割程度の雲 雲底高度 2740m
気温26℃
湿度48%
気圧1016hPa
METARDAAG 160630Z 25004KT 210V290 9999 FEW023 FEW026CB BKN090 26/14 Q1016
過去の天気等 Google飛行場航空写真 Wunderground天気予報

過去48時間のMETAR

飛行場予報(TAF)
発表時間: 7/16 06:00 CET (7/16 05:00 UTC)
予報対象時間: 16日7時 CET ~ 17日7時 CET
風向・風速不定 1m/s
視程10km以上
少しの雲 雲底高度 700m
全天の4割程度の雲 雲底高度 3050m
16日8時 CET ~ 16日12時 CET に 確率 30% で一時的に
少しの塔状積雲 雲底高度 700m
少しの積乱雲 雲底高度 790m
16日9時 CET ~ 16日12時 CET に徐々に
風向・風速北西 6m/s
16日10時 CET ~ 16日16時 CET に 確率 30% で一時的に
風向・風速北西 8m/s 瞬間風速 13m/s
16日21時 CET ~ 17日1時 CET に徐々に
風向・風速不定 1m/s
TAF DAAG 160500Z 1606/1706 VRB02KT 9999 FEW023 SCT100
PROB30 TEMPO 1607/1611 FEW023TCU FEW026CB
BECMG 1608/1611 32012KT
PROB30 TEMPO 1609/1615 32015G25KT
BECMG 1620/1624 VRB02KT